Almo, Idaho
Current Conditions -  °F | °C
As of 1:18 PM on Wednesday 28 Jan 2015 (Local Time) from KBYI Reporting Station
Broken Clouds Broken Clouds  
Wind Chill: 37°   Ceiling: 1300
Heat Index: 44°   Visibility: 10mi
Dew Point: 37°   Wind: 15mph
Humidity: 76%   Direction: 290°WNW
Pressure: 30.31"   Gusts: NA
Location:  42.1°N, 113.64°W
Report Text: KBYI 282018Z AUTO 29013KT 10SM BKN013 BKN020 07/03 A3031 RMK AO2 T00670028
Loading
Personal Weather Stations






























Interactive Weather Map New forecast layout! Learn more

10-Day Weather Forecast

Advertisements
Track Severe Weather on mobile